Pays
Station

 

Conditions  météo  pour  Pease Air Force Base/Portsmouth  -  Etats-Unis    Etats-Unis

  
6 °C
    
 
 

METAR pour Pease Air Force Base/Portsmouth :

KPSM 160356Z 00000KT 10SM CLR 06/04 A3009 RMK AO2A SLP192 T00630038

 

Voici le bulletin pour Pease Air Force Base/Portsmouth - Etats-Unis.
 
Le bulletin a été fait il y a 58 minutes, à 03:56 UTC .
Le vent était calme.
 
La température était de 6 °C, avec un point de rosée à 4 °C.
La pression atmosphérique était de 1019 hPa.
L'humidité relative était de 87.0%.
 
Le ciel était clair.
 
La visibilité globale était de 16.1 kilomètres.
 

 
 
 

Pays :   A   B   C   D   E   F   G   H   I   J   K   L   M   N   O   P   Q   R   S   T   U   V   W   Y   Z

 

Partenaires :  Info Météo avec Met'info
Météo Marine avec MeteoMarine.net
Infos Site  |  Infos Légales  |  Crédits  |  Confidentialité
Contactez-nous  |  Ajouter aux favoris
© 2013-2019 METAR - Tous droits réservés